createdAt,value
2023-05-22T00:00:57.794Z,56.18
2023-05-22T00:01:57.803Z,55.58
2023-05-22T00:02:58.018Z,55.68
2023-05-22T00:03:57.761Z,55.75
2023-05-22T00:04:57.761Z,55.47
2023-05-22T00:05:57.755Z,55.78
2023-05-22T00:06:57.765Z,55.18
2023-05-22T00:07:57.909Z,55.78
2023-05-22T00:08:57.719Z,56.18
2023-05-22T00:09:57.722Z,55.68
2023-05-22T00:10:57.685Z,56.18
2023-05-22T00:11:57.722Z,55.68
2023-05-22T00:12:57.678Z,56.08
2023-05-22T00:13:57.655Z,55.98
2023-05-22T00:14:57.652Z,55.78
2023-05-22T00:15:57.633Z,56.08
2023-05-22T00:16:57.679Z,55.88
2023-05-22T00:17:57.669Z,56.18
2023-05-22T00:18:57.766Z,55.98
2023-05-22T00:19:57.616Z,55.91
2023-05-22T00:20:57.603Z,55.78
2023-05-22T00:21:57.597Z,55.71
2023-05-22T00:22:57.558Z,56.10
2023-05-22T00:23:57.550Z,56.21
2023-05-22T00:24:57.537Z,55.80
2023-05-22T00:25:57.631Z,55.60
2023-05-22T00:26:57.534Z,55.71
2023-05-22T00:27:57.499Z,56.21
2023-05-22T00:28:57.494Z,56.21
2023-05-22T00:29:57.482Z,55.91
2023-05-22T00:30:57.490Z,56.21
2023-05-22T00:31:57.477Z,56.01
2023-05-22T00:32:57.499Z,56.41
2023-05-22T00:33:57.497Z,56.10
2023-05-22T00:34:57.467Z,55.91
2023-05-22T00:35:57.438Z,55.60
2023-05-22T00:36:57.405Z,56.21
2023-05-22T00:37:57.403Z,56.21
2023-05-22T00:38:57.389Z,56.41
2023-05-22T00:39:57.406Z,56.10
2023-05-22T00:40:57.372Z,56.41
2023-05-22T00:41:57.379Z,56.10
2023-05-22T00:42:57.347Z,56.30
2023-05-22T00:43:57.340Z,56.10
2023-05-22T00:44:57.338Z,56.23
2023-05-22T00:45:57.364Z,56.01
2023-05-22T00:46:57.376Z,56.21
2023-05-22T00:47:57.331Z,56.30
2023-05-22T00:48:57.289Z,56.21
2023-05-22T00:49:57.304Z,56.10
2023-05-22T00:50:57.266Z,56.34
2023-05-22T00:51:57.245Z,56.23
2023-05-22T00:52:57.253Z,56.23
2023-05-22T00:53:57.241Z,56.43
2023-05-22T00:54:57.229Z,56.13
2023-05-22T00:55:57.206Z,56.34
2023-05-22T00:56:57.198Z,55.83
2023-05-22T00:57:57.204Z,56.34
2023-05-22T00:58:57.182Z,56.23
2023-05-22T00:59:57.161Z,56.43
2023-05-22T01:00:57.166Z,56.13
2023-05-22T01:01:57.229Z,56.23
2023-05-22T01:02:57.252Z,56.23
2023-05-22T01:03:57.317Z,56.54
2023-05-22T01:04:57.106Z,56.54
2023-05-22T01:05:57.098Z,56.34
2023-05-22T01:06:57.087Z,56.06
2023-05-22T01:07:57.118Z,56.06
2023-05-22T01:08:57.062Z,56.06
2023-05-22T01:09:57.053Z,55.86
2023-05-22T01:10:57.060Z,56.16
2023-05-22T01:11:57.039Z,56.23
2023-05-22T01:12:57.032Z,56.36
2023-05-22T01:13:57.131Z,55.96
2023-05-22T01:14:57.000Z,56.36
2023-05-22T01:15:57.005Z,56.56
2023-05-22T01:16:56.986Z,56.26
2023-05-22T01:17:57.013Z,56.26
2023-05-22T01:18:57.013Z,56.06
2023-05-22T01:19:56.955Z,55.86
2023-05-22T01:20:56.936Z,56.06
2023-05-22T01:21:56.944Z,55.96
2023-05-22T01:22:56.924Z,56.16
2023-05-22T01:23:56.905Z,55.68
2023-05-22T01:24:56.891Z,55.99
2023-05-22T01:25:56.879Z,56.26
2023-05-22T01:26:56.880Z,56.49
2023-05-22T01:27:56.854Z,56.79
2023-05-22T01:28:56.850Z,56.79
2023-05-22T01:29:56.933Z,57.09
2023-05-22T01:30:56.825Z,56.49
2023-05-22T01:31:56.830Z,57.29
2023-05-22T01:32:56.928Z,57.50
2023-05-22T01:33:56.958Z,56.99
2023-05-22T01:34:56.798Z,57.39
2023-05-22T01:35:56.798Z,56.99
2023-05-22T01:36:56.778Z,57.09
2023-05-22T01:37:56.748Z,57.19
2023-05-22T01:38:56.763Z,57.50
2023-05-22T01:39:56.725Z,57.12
2023-05-22T01:40:56.727Z,57.12
2023-05-22T01:41:56.708Z,57.12
2023-05-22T01:42:56.698Z,56.41
2023-05-22T01:43:56.698Z,57.32
2023-05-22T01:44:56.671Z,57.22
2023-05-22T01:45:56.787Z,57.22
2023-05-22T01:46:56.665Z,57.22
2023-05-22T01:47:56.672Z,57.32
2023-05-22T01:48:56.647Z,57.35
2023-05-22T01:49:56.647Z,57.45
2023-05-22T01:50:56.626Z,57.35
2023-05-22T01:51:56.598Z,57.72
2023-05-22T01:52:56.587Z,57.85
2023-05-22T01:53:56.578Z,57.35
2023-05-22T01:54:56.585Z,57.75
2023-05-22T01:55:56.554Z,57.75
2023-05-22T01:56:56.549Z,57.32
2023-05-22T01:57:56.530Z,57.65
2023-05-22T01:58:56.544Z,57.95
2023-05-22T01:59:56.520Z,57.85
2023-05-22T02:00:56.543Z,57.95
2023-05-22T02:01:56.616Z,57.75
2023-05-22T02:02:56.530Z,57.95
2023-05-22T02:03:56.498Z,57.85
2023-05-22T02:04:56.501Z,58.05
2023-05-22T02:05:56.469Z,57.85
2023-05-22T02:06:56.469Z,57.65
2023-05-22T02:07:56.427Z,57.65
2023-05-22T02:08:56.426Z,57.95
2023-05-22T02:09:56.430Z,58.05
2023-05-22T02:10:56.391Z,57.95
2023-05-22T02:11:56.396Z,57.45
2023-05-22T02:12:56.372Z,57.95
2023-05-22T02:13:56.383Z,57.75
2023-05-22T02:14:56.365Z,57.75
2023-05-22T02:15:56.379Z,57.85
2023-05-22T02:16:56.328Z,57.85
2023-05-22T02:17:56.371Z,57.75
2023-05-22T02:18:56.395Z,57.85
2023-05-22T02:19:56.299Z,57.78
2023-05-22T02:20:56.285Z,57.88
2023-05-22T02:21:56.322Z,57.98
2023-05-22T02:22:56.287Z,57.88
2023-05-22T02:23:56.257Z,57.98
2023-05-22T02:24:56.257Z,57.68
2023-05-22T02:25:56.256Z,57.68
2023-05-22T02:26:56.243Z,58.18
2023-05-22T02:27:56.240Z,58.38
2023-05-22T02:28:56.198Z,58.18
2023-05-22T02:29:56.188Z,58.58
2023-05-22T02:30:56.215Z,58.38
2023-05-22T02:31:56.165Z,57.68
2023-05-22T02:32:56.184Z,58.38
2023-05-22T02:33:56.164Z,58.38
2023-05-22T02:34:56.134Z,57.68
2023-05-22T02:35:56.122Z,57.68
2023-05-22T02:36:56.111Z,58.38
2023-05-22T02:37:56.112Z,58.11
2023-05-22T02:38:56.090Z,58.07
2023-05-22T02:39:56.089Z,58.38
2023-05-22T02:40:56.070Z,57.70
2023-05-22T02:41:56.080Z,57.88
2023-05-22T02:42:56.059Z,57.98
2023-05-22T02:43:56.043Z,58.51
2023-05-22T02:44:56.026Z,58.18
2023-05-22T02:45:56.020Z,58.01
2023-05-22T02:46:56.186Z,57.90
2023-05-22T02:47:56.035Z,58.51
2023-05-22T02:48:55.984Z,58.41
2023-05-22T02:49:55.998Z,58.31
2023-05-22T02:50:55.963Z,58.31
2023-05-22T02:51:56.171Z,57.98
2023-05-22T02:52:55.938Z,58.11
2023-05-22T02:53:55.948Z,58.41
2023-05-22T02:54:55.932Z,58.31
2023-05-22T02:55:55.921Z,58.41
2023-05-22T02:56:55.912Z,58.11
2023-05-22T02:57:55.881Z,58.11
2023-05-22T02:58:55.886Z,58.31
2023-05-22T02:59:55.864Z,58.31
2023-05-22T03:00:55.864Z,58.41
2023-05-22T03:01:55.865Z,58.71
2023-05-22T03:02:55.919Z,58.41
2023-05-22T03:03:56.023Z,58.51
2023-05-22T03:04:55.810Z,58.91
2023-05-22T03:05:55.936Z,58.81
2023-05-22T03:06:55.785Z,58.84
2023-05-22T03:07:55.772Z,58.94
2023-05-22T03:08:55.767Z,58.71
2023-05-22T03:09:55.750Z,58.74
2023-05-22T03:10:55.759Z,58.71
2023-05-22T03:11:55.736Z,58.74
2023-05-22T03:12:55.716Z,59.04
2023-05-22T03:13:55.713Z,58.64
2023-05-22T03:14:55.716Z,58.64
2023-05-22T03:15:55.791Z,58.54
2023-05-22T03:16:55.674Z,58.54
2023-05-22T03:17:55.693Z,58.44
2023-05-22T03:18:55.667Z,58.34
2023-05-22T03:19:55.655Z,58.94
2023-05-22T03:20:55.629Z,59.44
2023-05-22T03:21:55.954Z,59.34
2023-05-22T03:22:55.607Z,59.64
2023-05-22T03:23:55.602Z,59.55
2023-05-22T03:24:55.600Z,58.84
2023-05-22T03:25:55.593Z,58.64
2023-05-22T03:26:55.565Z,59.57
2023-05-22T03:27:55.556Z,59.84
2023-05-22T03:28:55.626Z,59.95
2023-05-22T03:29:55.565Z,60.25
2023-05-22T03:30:55.526Z,60.05
2023-05-22T03:31:55.513Z,59.75
2023-05-22T03:32:55.539Z,59.77
2023-05-22T03:33:55.557Z,60.25
2023-05-22T03:34:55.501Z,60.28
2023-05-22T03:35:55.470Z,60.05
2023-05-22T03:36:55.467Z,60.25
2023-05-22T03:37:55.467Z,60.35
2023-05-22T03:38:55.451Z,60.28
2023-05-22T03:39:55.430Z,60.05
2023-05-22T03:40:55.413Z,60.05
2023-05-22T03:41:55.404Z,60.05
2023-05-22T03:42:55.403Z,60.38
2023-05-22T03:43:55.400Z,60.17
2023-05-22T03:44:55.384Z,60.15
2023-05-22T03:45:55.386Z,60.05
2023-05-22T03:46:55.349Z,60.05
2023-05-22T03:47:55.370Z,60.28
2023-05-22T03:48:55.346Z,59.84
2023-05-22T03:49:55.334Z,60.15
2023-05-22T03:50:55.307Z,60.65
2023-05-22T03:51:55.298Z,60.15
2023-05-22T03:52:55.304Z,60.15
2023-05-22T03:53:55.295Z,60.55
2023-05-22T03:54:55.268Z,59.95
2023-05-22T03:55:55.256Z,60.25
2023-05-22T03:56:55.266Z,60.15
2023-05-22T03:57:55.252Z,60.15
2023-05-22T03:58:55.233Z,59.92
2023-05-22T03:59:55.208Z,60.12
2023-05-22T04:00:55.198Z,59.62
2023-05-22T04:01:55.202Z,59.62
2023-05-22T04:02:55.199Z,59.52
2023-05-22T04:03:55.172Z,60.02
2023-05-22T04:04:55.203Z,60.02
2023-05-22T04:05:55.142Z,59.52
2023-05-22T04:06:55.159Z,59.62
2023-05-22T04:07:55.128Z,59.52
2023-05-22T04:08:55.107Z,59.52
2023-05-22T04:09:55.119Z,59.79
2023-05-22T04:10:55.103Z,59.28
2023-05-22T04:11:55.090Z,59.28
2023-05-22T04:12:55.074Z,58.88
2023-05-22T04:13:55.057Z,59.39
2023-05-22T04:14:55.042Z,58.68
2023-05-22T04:15:55.096Z,58.45
2023-05-22T04:16:55.020Z,58.35
2023-05-22T04:17:55.106Z,58.65
2023-05-22T04:18:55.014Z,58.45
2023-05-22T04:19:54.990Z,58.65
2023-05-22T04:20:55.001Z,58.75
2023-05-22T04:21:54.987Z,58.62
2023-05-22T04:22:54.963Z,58.73
2023-05-22T04:23:54.946Z,57.92
2023-05-22T04:24:54.950Z,58.02
2023-05-22T04:25:54.966Z,57.82
2023-05-22T04:26:54.940Z,58.12
2023-05-22T04:27:54.907Z,58.09
2023-05-22T04:28:54.888Z,58.09
2023-05-22T04:29:54.898Z,57.97
2023-05-22T04:30:54.912Z,58.09
2023-05-22T04:31:54.858Z,57.87
2023-05-22T04:32:54.894Z,57.79
2023-05-22T04:33:54.841Z,58.20
2023-05-22T04:34:54.843Z,58.29
2023-05-22T04:35:54.816Z,57.92
2023-05-22T04:36:54.801Z,58.45
2023-05-22T04:37:54.796Z,58.95
2023-05-22T04:38:54.793Z,59.36
2023-05-22T04:39:54.787Z,58.95
2023-05-22T04:40:54.761Z,58.86
2023-05-22T04:41:54.781Z,59.74
2023-05-22T04:42:54.746Z,58.53
2023-05-22T04:43:54.750Z,57.90
2023-05-22T04:44:54.740Z,58.09
2023-05-22T04:45:54.738Z,58.07
2023-05-22T04:46:54.743Z,58.77
2023-05-22T04:47:54.730Z,57.57
2023-05-22T04:48:54.699Z,57.14
2023-05-22T04:49:54.669Z,57.06
2023-05-22T04:50:54.653Z,57.24
2023-05-22T04:51:54.646Z,57.64
2023-05-22T04:52:54.628Z,57.57
2023-05-22T04:53:54.638Z,57.17
2023-05-22T04:54:54.616Z,57.57
2023-05-22T04:55:54.616Z,57.74
2023-05-22T04:56:54.588Z,57.26
2023-05-22T04:57:54.657Z,57.64
2023-05-22T04:58:54.586Z,57.94
2023-05-22T04:59:54.566Z,57.84
2023-05-22T05:00:54.575Z,56.93
2023-05-22T05:01:54.539Z,57.74
2023-05-22T05:02:54.578Z,57.87
2023-05-22T05:03:54.552Z,57.87
2023-05-22T05:04:54.509Z,57.50
2023-05-22T05:05:54.493Z,57.17
2023-05-22T05:06:54.486Z,57.97
2023-05-22T05:07:54.483Z,57.97
2023-05-22T05:08:54.458Z,58.57
2023-05-22T05:09:54.449Z,58.47
2023-05-22T05:10:54.442Z,58.27
2023-05-22T05:11:54.427Z,58.14
2023-05-22T05:12:54.429Z,57.54
2023-05-22T05:13:54.548Z,57.54
2023-05-22T05:14:54.393Z,56.93
2023-05-22T05:15:54.388Z,57.44
2023-05-22T05:16:54.461Z,58.04
2023-05-22T05:17:54.403Z,57.97
2023-05-22T05:18:54.380Z,57.87
2023-05-22T05:19:54.359Z,58.44
2023-05-22T05:20:54.333Z,58.24
2023-05-22T05:21:54.349Z,58.04
2023-05-22T05:22:54.311Z,58.24
2023-05-22T05:23:54.300Z,58.24
2023-05-22T05:24:54.287Z,57.87
2023-05-22T05:25:54.313Z,58.24
2023-05-22T05:26:54.286Z,57.87
2023-05-22T05:27:54.258Z,58.47
2023-05-22T05:28:54.264Z,58.47
2023-05-22T05:29:54.249Z,58.54
2023-05-22T05:30:54.238Z,58.67
2023-05-22T05:31:54.253Z,58.57
2023-05-22T05:32:54.230Z,58.24
2023-05-22T05:33:54.195Z,58.47
2023-05-22T05:34:54.181Z,58.04
2023-05-22T05:35:54.188Z,58.24
2023-05-22T05:36:54.158Z,58.67
2023-05-22T05:37:54.172Z,57.97
2023-05-22T05:38:54.149Z,57.94
2023-05-22T05:39:54.160Z,58.14
2023-05-22T05:40:54.126Z,58.44
2023-05-22T05:41:54.119Z,58.54
2023-05-22T05:42:54.097Z,58.54
2023-05-22T05:43:54.087Z,58.47
2023-05-22T05:44:54.105Z,59.47
2023-05-22T05:45:54.102Z,59.14
2023-05-22T05:46:54.076Z,58.67
2023-05-22T05:47:54.102Z,58.44
2023-05-22T05:48:54.031Z,58.64
2023-05-22T05:49:54.055Z,58.64
2023-05-22T05:50:54.017Z,58.34
2023-05-22T05:51:54.007Z,59.34
2023-05-22T05:52:54.004Z,58.44
2023-05-22T05:53:53.982Z,58.54
2023-05-22T05:54:53.996Z,57.94
2023-05-22T05:55:53.958Z,58.62
2023-05-22T05:56:53.950Z,58.84
2023-05-22T05:57:53.951Z,58.54
2023-05-22T05:58:53.958Z,58.64
2023-05-22T05:59:53.936Z,58.62
2023-05-22T06:00:53.907Z,58.51
2023-05-22T06:01:53.911Z,58.18
2023-05-22T06:02:53.960Z,58.42
2023-05-22T06:03:54.185Z,57.91
2023-05-22T06:04:53.880Z,57.68
2023-05-22T06:05:53.955Z,58.09
2023-05-22T06:06:53.850Z,58.49
2023-05-22T06:07:53.832Z,58.09
2023-05-22T06:08:53.839Z,58.59
2023-05-22T06:09:53.811Z,57.98
2023-05-22T06:10:53.807Z,57.79
2023-05-22T06:11:53.794Z,58.06
2023-05-22T06:12:53.804Z,57.66
2023-05-22T06:13:53.791Z,57.06
2023-05-22T06:14:53.761Z,57.76
2023-05-22T06:15:53.788Z,57.46
2023-05-22T06:16:53.780Z,57.23
2023-05-22T06:17:53.806Z,56.93
2023-05-22T06:18:53.745Z,55.73
2023-05-22T06:19:53.701Z,56.73
2023-05-22T06:20:53.715Z,57.43
2023-05-22T06:21:53.683Z,57.23
2023-05-22T06:22:53.690Z,57.15
2023-05-22T06:23:53.709Z,56.13
2023-05-22T06:24:53.665Z,57.63
2023-05-22T06:25:53.643Z,57.53
2023-05-22T06:26:53.660Z,57.13
2023-05-22T06:27:53.692Z,57.03
2023-05-22T06:28:53.608Z,56.13
2023-05-22T06:29:53.601Z,57.03
2023-05-22T06:30:53.587Z,56.83
2023-05-22T06:31:53.597Z,57.10
2023-05-22T06:32:53.641Z,57.10
2023-05-22T06:33:53.662Z,56.77
2023-05-22T06:34:53.580Z,57.07
2023-05-22T06:35:53.546Z,56.27
2023-05-22T06:36:53.542Z,56.07
2023-05-22T06:37:53.520Z,56.17
2023-05-22T06:38:53.556Z,56.67
2023-05-22T06:39:53.504Z,56.50
2023-05-22T06:40:53.494Z,56.70
2023-05-22T06:41:53.496Z,57.07
2023-05-22T06:42:53.464Z,57.17
2023-05-22T06:43:53.457Z,56.95
2023-05-22T06:44:53.441Z,56.05
2023-05-22T06:45:53.471Z,57.24
2023-05-22T06:46:53.430Z,57.24
2023-05-22T06:47:53.448Z,56.74
2023-05-22T06:48:53.398Z,56.12
2023-05-22T06:49:53.412Z,55.94
2023-05-22T06:50:53.400Z,56.85
2023-05-22T06:51:53.368Z,56.95
2023-05-22T06:52:53.355Z,56.55
2023-05-22T06:53:53.351Z,56.42
2023-05-22T06:54:53.349Z,55.99
2023-05-22T06:55:53.339Z,56.07
2023-05-22T06:56:53.319Z,56.04
2023-05-22T06:57:53.300Z,54.54
2023-05-22T06:58:53.301Z,54.34
2023-05-22T06:59:53.314Z,53.72
2023-05-22T07:00:53.291Z,54.32
2023-05-22T07:01:53.257Z,53.42
2023-05-22T07:02:53.338Z,53.39
2023-05-22T07:03:53.230Z,53.29
2023-05-22T07:04:53.260Z,52.82
2023-05-22T07:05:53.286Z,53.39
2023-05-22T07:06:53.209Z,53.49
2023-05-22T07:07:53.194Z,52.87
2023-05-22T07:08:53.184Z,52.49
2023-05-22T07:09:53.236Z,52.79
2023-05-22T07:10:53.157Z,52.09
2023-05-22T07:11:53.149Z,53.27
2023-05-22T07:12:53.136Z,52.94
2023-05-22T07:13:53.132Z,52.72
2023-05-22T07:14:53.143Z,52.12
2023-05-22T07:15:53.106Z,52.49
2023-05-22T07:16:53.164Z,52.79
2023-05-22T07:17:53.149Z,51.67
2023-05-22T07:18:53.208Z,50.85
2023-05-22T07:19:53.064Z,51.35
2023-05-22T07:20:53.053Z,51.54
2023-05-22T07:21:53.059Z,50.45
2023-05-22T07:22:53.041Z,51.37
2023-05-22T07:23:53.061Z,51.27
2023-05-22T07:24:53.011Z,51.25
2023-05-22T07:25:52.997Z,51.27
2023-05-22T07:26:52.983Z,50.95
2023-05-22T07:27:53.003Z,50.85
2023-05-22T07:28:52.980Z,51.12
2023-05-22T07:29:52.950Z,50.55
2023-05-22T07:30:52.948Z,51.65
2023-05-22T07:31:53.008Z,51.05
2023-05-22T07:32:53.014Z,50.85
2023-05-22T07:33:52.911Z,51.45
2023-05-22T07:34:52.916Z,51.65
2023-05-22T07:35:52.900Z,51.05
2023-05-22T07:36:52.878Z,51.15
2023-05-22T07:37:52.982Z,51.35
2023-05-22T07:38:52.856Z,50.82
2023-05-22T07:39:52.860Z,50.82
2023-05-22T07:40:52.833Z,51.10
2023-05-22T07:41:54.461Z,50.70
2023-05-22T07:42:52.855Z,50.52
2023-05-22T07:43:52.804Z,51.00
2023-05-22T07:44:52.809Z,50.68
2023-05-22T07:45:52.825Z,50.58
2023-05-22T07:46:52.803Z,49.86
2023-05-22T07:47:54.180Z,49.54
2023-05-22T07:48:52.750Z,49.71
2023-05-22T07:49:52.789Z,49.11
2023-05-22T07:50:52.728Z,48.62
2023-05-22T07:51:52.730Z,48.30
2023-05-22T07:52:52.708Z,48.40
2023-05-22T07:53:52.752Z,47.19
2023-05-22T07:54:52.685Z,47.38
2023-05-22T07:55:52.682Z,47.09
2023-05-22T07:56:52.679Z,47.09
2023-05-22T07:57:52.657Z,47.56
2023-05-22T07:58:52.646Z,46.55
2023-05-22T07:59:52.639Z,46.62
2023-05-22T08:00:52.649Z,46.62
2023-05-22T08:01:52.614Z,45.90
2023-05-22T08:02:52.775Z,45.41
2023-05-22T08:03:52.962Z,45.90
2023-05-22T08:04:52.709Z,46.30
2023-05-22T08:05:52.584Z,46.52
2023-05-22T08:06:52.559Z,46.30
2023-05-22T08:07:52.554Z,46.40
2023-05-22T08:08:52.542Z,45.21
2023-05-22T08:09:52.594Z,46.20
2023-05-22T08:11:53.518Z,45.89
2023-05-22T08:12:52.498Z,46.67
2023-05-22T08:13:52.497Z,44.50
2023-05-22T08:14:52.496Z,45.71
2023-05-22T08:16:00.582Z,46.52
2023-05-22T08:16:53.501Z,46.72
2023-05-22T08:17:52.473Z,44.84
2023-05-22T08:18:52.458Z,46.50
2023-05-22T08:19:52.545Z,46.40
2023-05-22T08:20:54.373Z,46.01
2023-05-22T08:21:52.397Z,45.00
2023-05-22T08:22:52.390Z,44.68
2023-05-22T08:23:52.395Z,44.87
2023-05-22T08:24:52.393Z,44.78
2023-05-22T08:25:52.392Z,44.85
2023-05-22T08:26:52.352Z,44.95
2023-05-22T08:27:52.385Z,44.14
2023-05-22T08:28:52.358Z,43.65
2023-05-22T08:29:52.318Z,43.27
2023-05-22T08:30:52.307Z,44.56
2023-05-22T08:31:52.365Z,44.16
2023-05-22T08:32:52.324Z,43.88
2023-05-22T08:33:52.293Z,43.98
2023-05-22T08:34:52.264Z,43.88
2023-05-22T08:35:52.303Z,43.98
2023-05-22T08:36:52.255Z,44.06
2023-05-22T08:37:52.248Z,44.26
2023-05-22T08:38:52.245Z,44.75
2023-05-22T08:39:52.234Z,45.27
2023-05-22T08:40:52.219Z,43.98
2023-05-22T08:41:52.684Z,43.12
2023-05-22T08:42:52.252Z,44.13
2023-05-22T08:43:52.185Z,45.04
2023-05-22T08:44:52.161Z,45.26
2023-05-22T08:45:52.147Z,46.86
2023-05-22T08:46:52.178Z,46.77
2023-05-22T08:47:52.161Z,46.15
2023-05-22T08:48:52.150Z,44.96
2023-05-22T08:49:52.121Z,45.85
2023-05-22T08:50:52.144Z,45.43
2023-05-22T08:51:52.110Z,45.28
2023-05-22T08:52:52.106Z,45.78
2023-05-22T08:53:52.066Z,45.87
2023-05-22T08:54:52.060Z,45.10
2023-05-22T08:55:52.051Z,45.97
2023-05-22T08:56:56.784Z,46.25
2023-05-22T08:57:53.123Z,44.67
2023-05-22T08:58:52.016Z,44.67
2023-05-22T08:59:52.006Z,45.56
2023-05-22T09:00:52.010Z,45.16
2023-05-22T09:01:52.023Z,45.14
2023-05-22T09:02:52.022Z,44.42
2023-05-22T09:03:52.025Z,44.45
2023-05-22T09:04:51.985Z,44.74
2023-05-22T09:05:51.954Z,45.23
2023-05-22T09:06:51.966Z,45.26
2023-05-22T09:07:51.921Z,45.26
2023-05-22T09:08:51.920Z,45.38
2023-05-22T09:09:51.911Z,46.07
2023-05-22T09:10:51.916Z,46.67
2023-05-22T09:11:51.891Z,46.69
2023-05-22T09:12:51.881Z,47.38
2023-05-22T09:13:52.010Z,46.89
2023-05-22T09:14:53.349Z,47.19
2023-05-22T09:15:51.859Z,46.69
2023-05-22T09:16:51.914Z,46.86
2023-05-22T09:17:51.859Z,46.07
2023-05-22T09:18:51.878Z,46.17
2023-05-22T09:19:51.816Z,46.37
2023-05-22T09:20:51.806Z,46.07
2023-05-22T09:21:51.780Z,45.57
2023-05-22T09:22:51.768Z,44.96
2023-05-22T09:23:51.762Z,45.16
2023-05-22T09:24:51.756Z,46.45
2023-05-22T09:25:51.743Z,45.14
2023-05-22T09:26:51.727Z,44.84
2023-05-22T09:27:51.712Z,45.43
2023-05-22T09:28:51.706Z,44.74
2023-05-22T09:29:51.784Z,45.34
2023-05-22T09:30:51.769Z,45.63
2023-05-22T09:31:51.732Z,45.06
2023-05-22T09:32:51.739Z,44.96
2023-05-22T09:33:51.659Z,45.16
2023-05-22T09:34:51.670Z,45.26
2023-05-22T09:35:51.637Z,45.16
2023-05-22T09:36:51.649Z,45.06
2023-05-22T09:37:51.610Z,45.06
2023-05-22T09:38:51.614Z,45.48
2023-05-22T09:39:51.654Z,45.57
2023-05-22T09:40:51.615Z,46.47
2023-05-22T09:41:51.567Z,46.09
2023-05-22T09:42:51.564Z,46.00
2023-05-22T09:43:51.563Z,46.71
2023-05-22T09:44:51.554Z,46.31
2023-05-22T09:45:51.582Z,46.91
2023-05-22T09:46:51.693Z,45.62
2023-05-22T09:47:51.582Z,46.61
2023-05-22T09:48:51.510Z,45.10
2023-05-22T09:49:51.506Z,45.79
2023-05-22T09:50:51.478Z,46.86
2023-05-22T09:51:51.466Z,45.78
2023-05-22T09:52:51.464Z,45.57
2023-05-22T09:53:51.447Z,45.38
2023-05-22T09:54:51.441Z,44.46
2023-05-22T09:55:51.422Z,44.67
2023-05-22T09:56:51.782Z,45.16
2023-05-22T09:57:51.410Z,45.34
2023-05-22T09:58:51.393Z,44.72
2023-05-22T09:59:51.382Z,44.60
2023-05-22T10:00:51.373Z,44.68
2023-05-22T10:01:51.518Z,44.36
2023-05-22T10:02:51.435Z,43.17
2023-05-22T10:03:51.384Z,43.47
2023-05-22T10:04:51.381Z,43.27
2023-05-22T10:05:51.334Z,43.79
2023-05-22T10:06:51.344Z,44.10
2023-05-22T10:07:51.308Z,43.83
2023-05-22T10:08:51.299Z,43.95
2023-05-22T10:09:51.302Z,44.84
2023-05-22T10:10:51.269Z,44.76
2023-05-22T10:11:51.276Z,44.96
2023-05-22T10:12:51.271Z,43.87
2023-05-22T10:13:51.236Z,43.48
2023-05-22T10:14:51.226Z,43.57
2023-05-22T10:15:51.275Z,44.05
2023-05-22T10:16:51.213Z,44.24
2023-05-22T10:17:51.359Z,44.42
2023-05-22T10:18:51.231Z,44.13
2023-05-22T10:19:51.217Z,44.45
2023-05-22T10:20:51.177Z,44.02
2023-05-22T10:21:51.148Z,44.52
2023-05-22T10:22:51.145Z,44.60
2023-05-22T10:23:51.142Z,45.59
2023-05-22T10:24:51.134Z,44.70
2023-05-22T10:25:51.123Z,44.01
2023-05-22T10:26:51.101Z,44.60
2023-05-22T10:27:51.088Z,43.46
2023-05-22T10:28:51.074Z,43.65
2023-05-22T10:29:51.100Z,44.46
2023-05-22T10:30:51.073Z,44.37
2023-05-22T10:31:51.066Z,45.06
2023-05-22T10:32:51.091Z,45.06
2023-05-22T10:33:51.172Z,45.18
2023-05-22T10:34:51.038Z,46.07
2023-05-22T10:35:51.008Z,44.39
2023-05-22T10:36:50.997Z,43.49
2023-05-22T10:37:51.059Z,44.49
2023-05-22T10:38:50.972Z,44.49
2023-05-22T10:39:50.982Z,44.86
2023-05-22T10:40:50.962Z,44.07
2023-05-22T10:41:50.938Z,43.97
2023-05-22T10:42:50.929Z,44.96
2023-05-22T10:43:50.958Z,45.08
2023-05-22T10:44:50.927Z,43.97
2023-05-22T10:45:50.972Z,43.87
2023-05-22T10:46:50.899Z,43.20
2023-05-22T10:47:50.898Z,44.59
2023-05-22T10:48:50.893Z,44.81
2023-05-22T10:49:50.973Z,44.21
2023-05-22T10:50:50.891Z,43.22
2023-05-22T10:51:50.850Z,44.21
2023-05-22T10:52:50.824Z,45.40
2023-05-22T10:53:50.827Z,45.10
2023-05-22T10:54:50.811Z,45.40
2023-05-22T10:55:50.796Z,44.81
2023-05-22T10:56:50.791Z,44.60
2023-05-22T10:57:50.784Z,43.91
2023-05-22T10:58:50.794Z,43.62
2023-05-22T10:59:50.784Z,44.23
2023-05-22T11:00:50.751Z,44.23
2023-05-22T11:01:50.791Z,45.62
2023-05-22T11:02:50.746Z,44.83
2023-05-22T11:03:50.739Z,42.92
2023-05-22T11:04:50.852Z,43.02
2023-05-22T11:05:50.970Z,44.11
2023-05-22T11:06:50.693Z,44.33
2023-05-22T11:07:50.718Z,44.51
2023-05-22T11:08:50.661Z,45.60
2023-05-22T11:09:50.652Z,42.92
2023-05-22T11:10:50.689Z,43.42
2023-05-22T11:11:50.713Z,43.12
2023-05-22T11:12:50.635Z,43.44
2023-05-22T11:13:50.604Z,43.32
2023-05-22T11:14:50.601Z,43.93
2023-05-22T11:15:50.603Z,44.13
2023-05-22T11:16:50.605Z,43.24
2023-05-22T11:17:50.597Z,43.74
2023-05-22T11:18:50.575Z,43.64
2023-05-22T11:19:50.621Z,42.94
2023-05-22T11:20:50.529Z,42.94
2023-05-22T11:21:50.649Z,43.24
2023-05-22T11:22:50.509Z,43.54
2023-05-22T11:23:50.522Z,42.25
2023-05-22T11:24:50.487Z,43.04
2023-05-22T11:25:50.477Z,44.04
2023-05-22T11:26:50.469Z,44.23
2023-05-22T11:27:50.502Z,44.83
2023-05-22T11:28:50.467Z,42.94
2023-05-22T11:29:50.438Z,43.44
2023-05-22T11:30:50.490Z,43.54
2023-05-22T11:31:50.410Z,43.14
2023-05-22T11:32:50.461Z,42.74
2023-05-22T11:33:50.393Z,43.74
2023-05-22T11:34:50.391Z,42.65
2023-05-22T11:35:50.369Z,43.84
2023-05-22T11:36:50.367Z,42.27
2023-05-22T11:37:50.511Z,43.24
2023-05-22T11:38:50.337Z,42.25
2023-05-22T11:39:50.336Z,42.35
2023-05-22T11:40:50.328Z,42.65
2023-05-22T11:41:50.306Z,42.15
2023-05-22T11:42:50.294Z,42.74
2023-05-22T11:43:50.289Z,42.25
2023-05-22T11:44:50.317Z,42.55
2023-05-22T11:45:50.273Z,42.66
2023-05-22T11:46:50.370Z,42.37
2023-05-22T11:47:50.293Z,42.17
2023-05-22T11:48:50.238Z,42.47
2023-05-22T11:49:50.270Z,42.96
2023-05-22T11:50:50.209Z,42.96
2023-05-22T11:51:50.199Z,42.66
2023-05-22T11:52:50.184Z,42.25
2023-05-22T11:53:50.231Z,43.14
2023-05-22T11:54:50.162Z,41.93
2023-05-22T11:55:50.173Z,42.23
2023-05-22T11:56:50.193Z,40.94
2023-05-22T11:57:50.135Z,41.14
2023-05-22T11:58:50.123Z,41.04
2023-05-22T11:59:50.111Z,40.94
2023-05-22T12:00:50.187Z,41.06
2023-05-22T12:01:50.113Z,41.55
2023-05-22T12:02:50.207Z,41.14
2023-05-22T12:03:50.170Z,40.86
2023-05-22T12:04:50.053Z,41.73
2023-05-22T12:05:50.042Z,40.64
2023-05-22T12:06:50.176Z,41.46
2023-05-22T12:07:50.033Z,41.75
2023-05-22T12:08:50.020Z,40.96
2023-05-22T12:09:50.117Z,41.06
2023-05-22T12:10:49.990Z,41.36
2023-05-22T12:11:49.973Z,41.16
2023-05-22T12:12:49.988Z,41.36
2023-05-22T12:13:49.954Z,40.76
2023-05-22T12:14:49.952Z,40.96
2023-05-22T12:15:49.942Z,41.06
2023-05-22T12:16:49.960Z,41.36
2023-05-22T12:17:49.959Z,40.96
2023-05-22T12:18:49.960Z,41.55
2023-05-22T12:19:49.900Z,42.35
2023-05-22T12:20:49.880Z,40.44
2023-05-22T12:21:49.878Z,41.33
2023-05-22T12:22:49.866Z,40.84
2023-05-22T12:23:49.852Z,40.64
2023-05-22T12:24:49.830Z,40.55
2023-05-22T12:25:49.950Z,40.64
2023-05-22T12:26:49.824Z,39.85
2023-05-22T12:27:49.800Z,40.94
2023-05-22T12:28:49.790Z,40.74
2023-05-22T12:29:49.783Z,41.63
2023-05-22T12:30:49.777Z,40.12
2023-05-22T12:31:49.853Z,39.65
2023-05-22T12:32:49.860Z,39.45
2023-05-22T12:33:49.740Z,40.15
2023-05-22T12:34:49.733Z,39.75
2023-05-22T12:35:49.727Z,39.45
2023-05-22T12:36:49.719Z,39.36
2023-05-22T12:37:49.706Z,39.85
2023-05-22T12:38:49.688Z,39.25
2023-05-22T12:39:49.677Z,38.96
2023-05-22T12:40:49.682Z,40.05
2023-05-22T12:41:49.782Z,39.57
2023-05-22T12:42:49.680Z,39.77
2023-05-22T12:43:49.632Z,38.78
2023-05-22T12:44:49.623Z,39.77
2023-05-22T12:45:49.626Z,39.69
2023-05-22T12:46:49.610Z,39.97
2023-05-22T12:47:49.631Z,39.87
2023-05-22T12:48:49.618Z,39.87
2023-05-22T12:49:49.582Z,39.17
2023-05-22T12:50:49.599Z,39.07
2023-05-22T12:51:49.560Z,39.28
2023-05-22T12:52:49.532Z,39.59
2023-05-22T12:53:49.536Z,38.20